Time;durP1;ratioP1;P1;durP2;ratioP2;P2;SDS_P1;SDS_P2;PMS_P1;PMS_P2;Temp;Humidity;BMP_temperature;BMP_pressure;BME280_temperature;BME280_humidity;BME280_pressure;Samples;Min_cycle;Max_cycle;Signal;HPM_P1;HPM_P2
2021/05/24 00:00:13;;;;;;;5.82;5.40;;;;;;;13.41;34.47;101197.84;4963803;28;97398;-72
2021/05/24 00:02:41;;;;;;;6.70;6.00;;;;;;;13.37;34.52;101200.44;4964151;28;102241;-72
2021/05/24 00:05:11;;;;;;;5.53;5.13;;;;;;;13.34;34.56;101193.28;4964246;28;97043;-73
2021/05/24 00:07:40;;;;;;;6.13;5.32;;;;;;;13.31;34.59;101201.25;4964746;28;97131;-73
2021/05/24 00:10:10;;;;;;;6.07;5.47;;;;;;;13.29;34.59;101192.31;4964010;28;97635;-73
2021/05/24 00:12:38;;;;;;;6.38;5.88;;;;;;;13.24;34.66;101183.28;4962920;28;100848;-72
2021/05/24 00:15:07;;;;;;;6.25;5.50;;;;;;;13.15;34.72;101184.03;4965018;28;96857;-72
2021/05/24 00:17:34;;;;;;;7.47;5.70;;;;;;;13.16;34.65;101184.94;4964422;28;96693;-72
2021/05/24 00:20:05;;;;;;;5.93;5.22;;;;;;;13.12;34.74;101177.75;4963560;28;97819;-72
2021/05/24 00:22:33;;;;;;;7.20;6.22;;;;;;;13.09;34.72;101180.38;4963675;28;100477;-72
2021/05/24 00:25:03;;;;;;;6.97;5.25;;;;;;;13.06;34.64;101178.53;4963510;28;96996;-72
2021/05/24 00:27:31;;;;;;;5.63;5.22;;;;;;;13.03;34.75;101172.25;4965189;28;97212;-72
2021/05/24 00:29:59;;;;;;;6.35;5.68;;;;;;;13.00;34.69;101172.22;4963133;28;98927;-72
2021/05/24 00:32:27;;;;;;;5.75;5.25;;;;;;;12.96;34.73;101160.53;4963013;28;97004;-72
2021/05/24 00:34:55;;;;;;;5.65;5.07;;;;;;;12.95;34.63;101166.72;4962994;28;97312;-73
2021/05/24 00:37:24;;;;;;;5.82;5.32;;;;;;;12.95;34.51;101165.81;4962692;28;97124;-73
2021/05/24 00:39:52;;;;;;;6.32;5.63;;;;;;;12.94;34.56;101164.03;4962303;28;100235;-73
2021/05/24 00:42:19;;;;;;;6.18;5.22;;;;;;;12.89;34.63;101158.59;4964292;28;97782;-72
2021/05/24 00:44:47;;;;;;;5.82;5.32;;;;;;;12.86;34.49;101163.00;4964289;28;96933;-72
2021/05/24 00:47:15;;;;;;;6.07;5.53;;;;;;;12.86;34.55;101169.25;4963259;28;97962;-72
2021/05/24 00:49:44;;;;;;;5.63;5.22;;;;;;;12.83;34.41;101163.84;4962987;28;97297;-72
2021/05/24 00:52:13;;;;;;;5.22;4.82;;;;;;;12.80;34.54;101157.56;4963438;28;98121;-72
2021/05/24 00:54:42;;;;;;;6.57;5.78;;;;;;;12.80;34.43;101152.22;4962013;28;96919;-72
2021/05/24 00:57:10;;;;;;;5.32;4.82;;;;;;;12.77;34.66;101150.38;4963671;28;97531;-72
2021/05/24 00:59:38;;;;;;;5.35;4.95;;;;;;;12.74;34.55;101154.78;4962552;28;99661;-72
2021/05/24 01:02:06;;;;;;;8.18;5.40;;;;;;;12.73;34.65;101147.66;4964279;28;96801;-72
2021/05/24 01:04:35;;;;;;;6.22;5.10;;;;;;;12.72;34.63;101154.75;4962045;28;98369;-71
2021/05/24 01:07:04;;;;;;;5.05;4.65;;;;;;;12.70;34.54;101151.16;4962380;28;97932;-72
2021/05/24 01:09:32;;;;;;;5.50;5.00;;;;;;;12.70;34.52;101144.91;4963725;28;99908;-71
2021/05/24 01:12:01;;;;;;;6.10;5.40;;;;;;;12.68;34.49;101142.22;4963439;28;97914;-72
2021/05/24 01:14:29;;;;;;;5.63;5.03;;;;;;;12.65;34.67;101143.94;4964121;28;97432;-72
2021/05/24 01:16:58;;;;;;;5.10;4.60;;;;;;;12.62;34.68;101138.53;4963554;28;97247;-72
2021/05/24 01:19:26;;;;;;;5.22;4.82;;;;;;;12.60;34.52;101140.28;4962668;28;97885;-72
2021/05/24 01:21:55;;;;;;;5.50;5.00;;;;;;;12.57;34.50;101142.88;4961489;28;97820;-72
2021/05/24 01:24:23;;;;;;;5.28;4.90;;;;;;;12.55;34.50;101142.84;4963578;28;97472;-72
2021/05/24 01:26:51;;;;;;;5.50;4.95;;;;;;;12.53;34.50;101141.03;4963490;28;97374;-71
2021/05/24 01:29:20;;;;;;;5.00;4.60;;;;;;;12.50;34.45;101135.63;4961114;28;98353;-72
2021/05/24 01:31:48;;;;;;;5.50;4.95;;;;;;;12.48;34.63;101143.59;4962509;28;98046;-72
2021/05/24 01:34:17;;;;;;;5.47;4.97;;;;;;;12.47;34.44;101136.50;4962164;28;97751;-72
2021/05/24 01:36:45;;;;;;;4.97;4.57;;;;;;;12.47;34.59;101141.81;4964189;28;98554;-72
2021/05/24 01:39:13;;;;;;;5.13;4.70;;;;;;;12.46;34.58;101142.69;4962740;28;99209;-71
2021/05/24 01:41:41;;;;;;;5.70;4.65;;;;;;;12.43;34.51;101150.63;4962814;28;96937;-72
2021/05/24 01:44:09;;;;;;;6.10;5.60;;;;;;;12.44;34.60;101143.50;4963092;28;97431;-72
2021/05/24 01:46:37;;;;;;;5.40;5.10;;;;;;;12.40;34.36;101144.34;4962867;28;96994;-71
2021/05/24 01:49:05;;;;;;;5.55;4.55;;;;;;;12.37;34.54;101145.16;4961287;28;98261;-72
2021/05/24 01:51:33;;;;;;;5.10;4.65;;;;;;;12.35;34.45;101140.66;4963985;28;99893;-72
2021/05/24 01:54:01;;;;;;;5.05;4.75;;;;;;;12.32;34.73;101145.94;4964321;28;97273;-73
2021/05/24 01:56:29;;;;;;;5.35;4.95;;;;;;;12.27;34.52;101143.22;4962376;28;97463;-72
2021/05/24 01:58:57;;;;;;;5.80;5.18;;;;;;;12.22;34.65;101139.53;4963026;28;98221;-71
2021/05/24 02:01:25;;;;;;;5.35;4.95;;;;;;;12.20;34.73;101135.03;4961083;28;97793;-72
2021/05/24 02:03:53;;;;;;;7.13;6.03;;;;;;;12.15;34.86;101138.47;4960745;28;96825;-72
2021/05/24 02:06:21;;;;;;;5.30;4.90;;;;;;;12.11;34.67;101128.59;4963329;28;97293;-72
2021/05/24 02:08:51;;;;;;;5.30;4.80;;;;;;;12.07;34.73;101137.41;4965180;28;99583;-72
2021/05/24 02:11:19;;;;;;;7.07;4.97;;;;;;;12.07;34.79;101131.19;4965377;28;99054;-72
2021/05/24 02:13:48;;;;;;;6.05;5.03;;;;;;;12.04;34.86;101128.44;4964611;28;97504;-72
2021/05/24 02:16:16;;;;;;;6.30;5.45;;;;;;;12.02;34.82;101136.41;4966740;28;97086;-72
2021/05/24 02:18:44;;;;;;;5.03;4.50;;;;;;;12.05;34.70;101135.59;4965594;28;98949;-71
2021/05/24 02:21:12;;;;;;;5.40;5.00;;;;;;;12.06;34.55;101135.63;4965950;28;99213;-72
2021/05/24 02:23:39;;;;;;;5.57;5.05;;;;;;;12.07;34.64;101131.19;4965555;28;97769;-72
2021/05/24 02:26:08;;;;;;;5.22;4.82;;;;;;;12.03;34.76;101126.66;4966630;28;97983;-72
2021/05/24 02:28:35;;;;;;;5.18;4.78;;;;;;;11.94;34.83;101119.34;4965215;28;97993;-72
2021/05/24 02:31:04;;;;;;;6.18;5.55;;;;;;;11.92;34.75;101115.78;4964081;28;99963;-72
2021/05/24 02:33:32;;;;;;;6.20;5.70;;;;;;;11.90;34.67;101117.50;4965442;28;96826;-72
2021/05/24 02:36:00;;;;;;;6.53;5.63;;;;;;;11.91;34.80;101124.63;4964927;28;97266;-72
2021/05/24 02:38:28;;;;;;;5.97;5.43;;;;;;;11.90;34.83;101124.59;4964901;28;97150;-72
2021/05/24 02:40:55;;;;;;;8.45;5.60;;;;;;;11.90;34.75;101125.50;4965697;28;97834;-72
2021/05/24 02:43:23;;;;;;;9.00;7.07;;;;;;;11.90;34.73;101124.59;4966517;28;97340;-71
2021/05/24 02:45:52;;;;;;;7.10;5.63;;;;;;;11.87;34.93;101122.75;4965965;28;97867;-71
2021/05/24 02:48:21;;;;;;;5.95;5.45;;;;;;;11.87;35.03;101119.22;4965294;28;98891;-71
2021/05/24 02:50:49;;;;;;;6.10;5.50;;;;;;;11.84;34.67;101120.03;4965528;28;97885;-71
2021/05/24 02:53:17;;;;;;;6.05;5.47;;;;;;;11.81;34.87;101117.31;4964514;28;98026;-71
2021/05/24 02:55:46;;;;;;;5.97;5.47;;;;;;;11.78;34.96;101119.91;4965692;28;97097;-71
2021/05/24 02:58:13;;;;;;;5.95;5.38;;;;;;;11.78;34.88;101129.69;4964357;28;98943;-72
2021/05/24 03:00:41;;;;;;;5.85;5.30;;;;;;;11.77;34.73;101131.44;4965770;28;96921;-71
2021/05/24 03:03:12;;;;;;;6.15;5.60;;;;;;;11.72;34.87;101125.13;4965008;28;97167;-72
2021/05/24 03:05:41;;;;;;;6.10;5.60;;;;;;;11.71;34.80;101127.72;4963821;28;97567;-71
2021/05/24 03:08:08;;;;;;;6.50;6.00;;;;;;;11.67;34.80;101123.22;4964881;28;97797;-72
2021/05/24 03:10:39;;;;;;;5.80;5.30;;;;;;;11.63;34.82;101126.66;4965278;28;97760;-72
2021/05/24 03:13:08;;;;;;;6.35;5.75;;;;;;;11.58;34.92;101120.34;4964959;28;96906;-72
2021/05/24 03:15:36;;;;;;;6.60;5.93;;;;;;;11.55;34.95;101126.50;4964521;28;97143;-72
2021/05/24 03:18:04;;;;;;;6.60;6.00;;;;;;;11.52;34.95;101122.88;4966008;28;97878;-71
2021/05/24 03:20:32;;;;;;;6.25;5.75;;;;;;;11.48;34.91;101128.97;4964533;28;98954;-71
2021/05/24 03:23:01;;;;;;;6.10;4.93;;;;;;;11.45;35.07;101116.47;4964824;28;97545;-71
2021/05/24 03:25:29;;;;;;;5.53;5.10;;;;;;;11.44;34.98;101121.78;4964111;28;97280;-71
2021/05/24 03:27:56;;;;;;;5.95;5.05;;;;;;;11.40;35.02;101122.56;4965458;28;97858;-71
2021/05/24 03:30:24;;;;;;;5.57;5.07;;;;;;;11.35;35.12;101122.47;4964883;28;97743;-71
2021/05/24 03:32:52;;;;;;;5.40;4.88;;;;;;;11.34;35.21;101119.78;4964857;28;98496;-72
2021/05/24 03:35:20;;;;;;;5.85;4.75;;;;;;;11.35;35.26;101124.22;4965552;28;97807;-71
2021/05/24 03:37:48;;;;;;;5.15;4.65;;;;;;;11.33;35.10;101118.88;4964497;28;98902;-71
2021/05/24 03:40:17;;;;;;;4.15;3.90;;;;;;;11.39;35.09;101123.44;4965240;28;98872;-71
2021/05/24 03:42:45;;;;;;;5.25;4.53;;;;;;;11.36;35.13;101118.94;4964256;28;96932;-71
2021/05/24 03:45:15;;;;;;;4.93;4.45;;;;;;;11.35;34.94;101117.16;4964980;28;97288;-71
2021/05/24 03:47:43;;;;;;;5.18;4.78;;;;;;;11.33;34.99;101118.88;4965366;28;97844;-71
2021/05/24 03:50:12;;;;;;;4.13;3.88;;;;;;;11.32;35.04;101114.41;4963986;28;97749;-71
2021/05/24 03:52:40;;;;;;;4.55;4.25;;;;;;;11.30;35.10;101102.78;4965503;28;96925;-72
2021/05/24 03:55:09;;;;;;;4.22;4.03;;;;;;;11.31;35.01;101109.00;4964460;28;98707;-71
2021/05/24 03:57:37;;;;;;;4.38;4.15;;;;;;;11.31;34.98;101111.66;4964516;28;97123;-71
2021/05/24 04:00:08;;;;;;;4.68;4.20;;;;;;;11.29;35.07;101106.31;4963879;28;98938;-71
2021/05/24 04:02:39;;;;;;;4.22;3.90;;;;;;;11.28;34.80;101104.50;4963404;28;97455;-71
2021/05/24 04:05:13;;;;;;;4.13;3.83;;;;;;;11.28;34.98;101108.94;4964271;28;97385;-72
2021/05/24 04:07:44;;;;;;;4.13;3.85;;;;;;;11.25;35.08;101104.41;4960594;28;97394;-71
2021/05/24 04:10:12;;;;;;;4.50;4.20;;;;;;;11.24;35.10;101105.31;4963086;28;98038;-72
2021/05/24 04:12:40;;;;;;;3.83;3.60;;;;;;;11.26;35.01;101100.91;4963751;28;96825;-71
2021/05/24 04:15:10;;;;;;;4.00;3.70;;;;;;;11.26;35.08;101100.91;4964424;28;96814;-72
2021/05/24 04:17:39;;;;;;;3.90;3.67;;;;;;;11.26;34.66;101100.91;4963788;28;97840;-72
2021/05/24 04:20:11;;;;;;;5.40;4.05;;;;;;;11.28;34.93;101096.53;4963423;28;99124;-72
2021/05/24 04:22:39;;;;;;;3.78;3.58;;;;;;;11.29;35.04;101100.97;4963504;28;97753;-71
2021/05/24 04:25:08;;;;;;;3.80;3.70;;;;;;;11.30;35.04;101097.47;4963231;28;97288;-71
2021/05/24 04:27:36;;;;;;;4.25;4.05;;;;;;;11.31;35.02;101091.28;4964393;28;98045;-72
2021/05/24 04:30:08;;;;;;;3.80;3.60;;;;;;;11.33;34.93;101089.56;4964422;28;97791;-73
2021/05/24 04:32:35;;;;;;;3.75;3.53;;;;;;;11.36;34.76;101097.63;4964069;28;96902;-72
2021/05/24 04:35:04;;;;;;;3.67;3.47;;;;;;;11.36;34.90;101096.75;4964874;28;97226;-72
2021/05/24 04:37:32;;;;;;;5.05;4.28;;;;;;;11.38;34.89;101100.34;4963042;28;98132;-72
2021/05/24 04:40:01;;;;;;;6.43;5.60;;;;;;;11.41;34.89;101100.41;4964597;28;98086;-72
2021/05/24 04:42:28;;;;;;;3.70;3.50;;;;;;;11.40;34.87;101103.91;4962005;28;98374;-73
2021/05/24 04:44:56;;;;;;;4.15;3.78;;;;;;;11.41;34.98;101111.97;4963087;28;97556;-73
2021/05/24 04:47:25;;;;;;;3.75;3.45;;;;;;;11.45;34.87;101111.16;4963480;28;98007;-72
2021/05/24 04:49:52;;;;;;;3.80;3.50;;;;;;;11.47;34.72;101111.22;4963266;28;97660;-72
2021/05/24 04:52:21;;;;;;;3.83;3.55;;;;;;;11.48;34.90;101116.56;4964333;28;97478;-72
2021/05/24 04:54:48;;;;;;;4.15;3.85;;;;;;;11.48;34.80;101116.56;4963954;28;97683;-71
2021/05/24 04:57:16;;;;;;;66.20;30.85;;;;;;;11.51;34.87;101121.03;4964986;28;97951;-72
2021/05/24 04:59:44;;;;;;;10.98;6.90;;;;;;;11.53;34.73;101117.56;4962177;28;99713;-71
2021/05/24 05:02:11;;;;;;;3.83;3.63;;;;;;;11.54;34.85;101103.38;4964661;28;97474;-72
2021/05/24 05:04:41;;;;;;;3.40;3.20;;;;;;;11.58;34.70;101099.91;4964448;28;97805;-72
2021/05/24 05:07:08;;;;;;;3.75;3.58;;;;;;;11.63;34.80;101111.59;4961676;28;98402;-72
2021/05/24 05:09:36;;;;;;;3.95;3.65;;;;;;;11.64;34.73;101121.38;4961429;28;96935;-71
2021/05/24 05:12:05;;;;;;;3.70;3.50;;;;;;;11.66;34.74;101122.31;4963656;28;97459;-71
2021/05/24 05:14:33;;;;;;;4.18;3.55;;;;;;;11.69;34.82;101118.81;4963227;28;96836;-72
2021/05/24 05:17:01;;;;;;;3.72;3.47;;;;;;;11.69;34.79;101114.38;4961497;28;98972;-71
2021/05/24 05:19:28;;;;;;;3.58;3.38;;;;;;;11.70;34.74;101116.19;4963129;28;97762;-71
2021/05/24 05:21:57;;;;;;;3.80;3.50;;;;;;;11.74;34.76;101107.34;4963544;28;96929;-71
2021/05/24 05:24:25;;;;;;;3.95;3.70;;;;;;;11.78;34.70;101103.03;4962846;28;97205;-71
2021/05/24 05:26:52;;;;;;;3.33;3.13;;;;;;;11.82;34.54;101115.53;4962984;28;101283;-72
2021/05/24 05:29:20;;;;;;;4.18;3.88;;;;;;;11.87;34.62;101117.41;4965121;28;97981;-72
2021/05/24 05:31:48;;;;;;;7.35;5.80;;;;;;;11.92;34.71;101117.53;4964270;28;97463;-71
2021/05/24 05:34:16;;;;;;;4.20;3.80;;;;;;;11.97;34.71;101115.84;4962054;28;97757;-71
2021/05/24 05:36:44;;;;;;;4.00;3.13;;;;;;;12.01;34.69;101118.63;4965216;28;97805;-72
2021/05/24 05:39:13;;;;;;;3.70;3.50;;;;;;;12.08;34.53;101116.97;4971519;28;96865;-72
2021/05/24 05:41:41;;;;;;;3.45;3.28;;;;;;;12.13;34.57;101110.88;4973229;28;96932;-74
2021/05/24 05:44:09;;;;;;;3.78;3.47;;;;;;;12.19;34.39;101115.47;4976761;28;96750;-74
2021/05/24 05:46:37;;;;;;;6.15;5.53;;;;;;;12.26;34.29;101108.47;4973109;28;97892;-74
2021/05/24 05:49:05;;;;;;;12.63;7.93;;;;;;;12.34;34.29;101101.50;4965884;28;97953;-73
2021/05/24 05:51:33;;;;;;;4.97;4.57;;;;;;;12.38;34.08;101106.94;4962464;28;97437;-71
2021/05/24 05:54:01;;;;;;;5.05;4.68;;;;;;;12.39;34.29;101105.16;4961629;28;97502;-71
2021/05/24 05:56:30;;;;;;;5.28;4.63;;;;;;;12.45;34.23;101102.63;4963048;28;97979;-71
2021/05/24 05:58:58;;;;;;;4.68;4.28;;;;;;;12.48;34.14;101100.00;4962810;28;99487;-70
2021/05/24 06:01:26;;;;;;;5.07;4.57;;;;;;;12.54;34.13;101098.34;4959396;28;97401;-70
2021/05/24 06:03:53;;;;;;;5.07;4.78;;;;;;;12.59;34.10;101102.00;4960065;28;97762;-71
2021/05/24 06:06:21;;;;;;;4.45;4.13;;;;;;;12.63;34.10;101100.28;4961826;28;98091;-71
2021/05/24 06:08:49;;;;;;;4.28;3.97;;;;;;;12.68;34.08;101095.91;4959880;28;99878;-71
2021/05/24 06:11:17;;;;;;;3.78;3.58;;;;;;;12.72;34.16;101100.44;4954358;28;97775;-71
2021/05/24 06:13:45;;;;;;;3.78;3.47;;;;;;;12.78;33.97;101104.09;4960935;28;97537;-71
2021/05/24 06:16:15;;;;;;;3.50;3.30;;;;;;;12.83;33.94;101093.50;4958364;28;98073;-71
2021/05/24 06:18:43;;;;;;;4.15;3.85;;;;;;;12.91;34.01;101094.53;4961604;28;98978;-70
2021/05/24 06:21:10;;;;;;;4.03;3.80;;;;;;;12.96;33.92;101095.50;4961783;28;96808;-71
2021/05/24 06:23:38;;;;;;;3.80;3.60;;;;;;;12.99;34.08;101088.47;4962773;28;98866;-71
2021/05/24 06:26:06;;;;;;;30.70;14.38;;;;;;;13.03;33.84;101092.09;4962314;28;99008;-72
2021/05/24 06:28:34;;;;;;;7.07;5.88;;;;;;;13.10;33.97;101092.22;4962278;28;99361;-71
2021/05/24 06:31:03;;;;;;;4.25;3.83;;;;;;;13.15;33.98;101086.94;4963398;28;96935;-70
2021/05/24 06:33:31;;;;;;;3.22;3.03;;;;;;;13.22;33.79;101090.63;4961735;28;97394;-71
2021/05/24 06:35:58;;;;;;;3.55;3.30;;;;;;;13.29;33.72;101079.13;4965506;28;97631;-71
2021/05/24 06:38:27;;;;;;;8.52;5.05;;;;;;;13.35;33.72;101082.78;4962619;28;98079;-73
2021/05/24 06:40:55;;;;;;;5.97;5.15;;;;;;;13.40;33.69;101077.53;4961741;28;97685;-72
2021/05/24 06:43:24;;;;;;;4.00;3.70;;;;;;;13.45;33.96;101071.38;4961887;28;97743;-72
2021/05/24 06:45:52;;;;;;;3.38;3.08;;;;;;;13.53;33.59;101082.16;4962363;28;101062;-72
2021/05/24 06:48:20;;;;;;;3.15;3.05;;;;;;;13.58;33.67;101073.34;4963620;28;97851;-71
2021/05/24 06:50:48;;;;;;;3.10;2.90;;;;;;;13.64;33.59;101065.38;4961767;28;97844;-72
2021/05/24 06:53:16;;;;;;;3.20;3.00;;;;;;;13.70;33.48;101069.91;4964984;28;96852;-72
2021/05/24 06:55:44;;;;;;;3.45;3.08;;;;;;;13.76;33.57;101060.19;4964785;28;98206;-72
2021/05/24 06:58:11;;;;;;;3.20;3.00;;;;;;;13.82;33.46;101046.91;4965024;28;97715;-72
2021/05/24 07:00:39;;;;;;;3.67;3.38;;;;;;;13.87;33.44;101039.88;4964831;28;96890;-73
2021/05/24 07:03:07;;;;;;;3.08;2.60;;;;;;;13.93;33.56;101045.25;4965913;28;97533;-72
2021/05/24 07:05:35;;;;;;;8.05;4.53;;;;;;;13.97;33.57;101039.06;4963896;28;99044;-72
2021/05/24 07:08:04;;;;;;;12.77;11.23;;;;;;;14.06;33.53;101044.53;4963324;28;97726;-73
2021/05/24 07:10:32;;;;;;;8.77;7.43;;;;;;;14.10;33.30;101042.78;4963609;28;97736;-72
2021/05/24 07:13:00;;;;;;;3.88;3.40;;;;;;;14.18;33.26;101046.44;4963919;28;97540;-73
2021/05/24 07:15:28;;;;;;;2.88;2.67;;;;;;;14.25;33.09;101047.38;4963267;28;99325;-74
2021/05/24 07:17:55;;;;;;;3.05;2.95;;;;;;;14.30;33.21;101040.34;4963643;28;98229;-72
2021/05/24 07:20:24;;;;;;;3.35;3.03;;;;;;;14.37;33.01;101029.66;4964404;28;97336;-73
2021/05/24 07:22:52;;;;;;;3.00;2.80;;;;;;;14.46;33.14;101036.91;4966179;28;97386;-73
2021/05/24 07:25:28;;;;;;;2.65;2.55;;;;;;;14.50;32.93;101036.06;4967061;28;98931;-74
2021/05/24 07:27:57;;;;;;;2.80;2.70;;;;;;;14.58;33.00;101031.69;4965142;28;97598;-74
2021/05/24 07:30:24;;;;;;;2.40;2.40;;;;;;;14.61;33.09;101029.94;4963939;28;97053;-72
2021/05/24 07:32:52;;;;;;;2.60;2.40;;;;;;;14.67;33.05;101026.41;4966960;28;96654;-71
2021/05/24 07:35:20;;;;;;;2.70;2.53;;;;;;;14.72;32.75;101021.97;4963634;28;98968;-72
2021/05/24 07:37:48;;;;;;;11.38;7.07;;;;;;;14.76;32.97;101016.66;4965149;28;98631;-75
2021/05/24 07:40:17;;;;;;;5.20;4.25;;;;;;;14.83;32.73;101013.16;4963943;28;98476;-73
2021/05/24 07:42:46;;;;;;;3.92;3.72;;;;;;;14.91;32.61;101005.16;4963285;28;97824;-73
2021/05/24 07:45:14;;;;;;;2.65;2.53;;;;;;;15.00;32.77;101014.19;4959572;28;99022;-73
2021/05/24 07:47:42;;;;;;;2.45;2.35;;;;;;;15.04;32.89;101004.38;4964866;28;98162;-73
2021/05/24 07:50:10;;;;;;;3.42;2.30;;;;;;;15.12;32.81;100997.25;4963830;28;97377;-73
2021/05/24 07:52:38;;;;;;;2.97;2.28;;;;;;;15.21;32.58;101005.34;4964075;28;97096;-74
2021/05/24 07:55:07;;;;;;;2.42;2.30;;;;;;;15.29;32.65;101000.03;4961882;28;99411;-74
2021/05/24 07:57:38;;;;;;;2.55;2.22;;;;;;;15.33;32.37;100997.41;4961089;28;98823;-73
2021/05/24 08:00:12;;;;;;;2.50;2.40;;;;;;;15.41;32.72;100986.75;4959010;28;97754;-74
2021/05/24 08:02:41;;;;;;;2.95;2.20;;;;;;;15.48;32.37;100989.47;4956924;28;97064;-71
2021/05/24 08:05:11;;;;;;;2.22;2.13;;;;;;;15.59;32.49;100990.41;4955512;28;99336;-70
2021/05/24 08:07:39;;;;;;;1.90;1.90;;;;;;;15.68;32.10;100982.38;4960855;28;99523;-73
2021/05/24 08:10:08;;;;;;;2.53;2.17;;;;;;;15.74;32.27;100979.69;4962327;28;97387;-72
2021/05/24 08:12:38;;;;;;;1.73;1.63;;;;;;;15.81;32.42;100983.31;4945930;28;97846;-71
2021/05/24 08:15:08;;;;;;;2.10;2.00;;;;;;;15.91;31.92;100969.00;4962642;28;97856;-71
2021/05/24 08:17:36;;;;;;;6.68;3.65;;;;;;;15.99;31.99;100961.88;4962934;28;97634;-74
2021/05/24 08:20:06;;;;;;;5.75;5.05;;;;;;;16.05;31.99;100952.06;4962210;28;97097;-73
2021/05/24 08:22:34;;;;;;;2.30;2.17;;;;;;;16.14;31.81;100953.00;4963716;28;97207;-72
2021/05/24 08:25:03;;;;;;;3.15;2.90;;;;;;;16.20;31.68;100961.94;4964137;28;98127;-71
2021/05/24 08:27:31;;;;;;;2.55;2.35;;;;;;;16.30;31.74;100952.09;4964393;28;98006;-71
2021/05/24 08:30:05;;;;;;;2.55;2.45;;;;;;;16.38;31.61;100955.69;4963233;28;96831;-72
2021/05/24 08:32:32;;;;;;;2.35;1.90;;;;;;;16.44;31.64;100948.53;4963810;28;97209;-72
2021/05/24 08:35:01;;;;;;;3.50;2.00;;;;;;;16.51;31.58;100944.03;4963903;28;99321;-72
2021/05/24 08:37:28;;;;;;;1.90;1.80;;;;;;;16.58;31.62;100952.09;4963560;28;97768;-72
2021/05/24 08:39:56;;;;;;;1.67;1.67;;;;;;;16.64;31.25;100944.03;4963682;28;96774;-72
2021/05/24 08:42:28;;;;;;;3.28;2.10;;;;;;;16.71;31.49;100935.09;4965412;28;97649;-72
2021/05/24 08:44:57;;;;;;;1.85;1.85;;;;;;;16.81;31.30;100935.97;4964132;28;98245;-72
2021/05/24 08:47:28;;;;;;;4.68;3.67;;;;;;;16.89;31.20;100936.84;4965489;28;97781;-72
2021/05/24 08:50:11;;;;;;;2.00;1.90;;;;;;;16.73;30.93;100921.66;4961907;28;97423;-73
2021/05/24 08:52:39;;;;;;;4.03;3.63;;;;;;;16.76;30.73;100919.84;4962413;28;97007;-73
2021/05/24 08:55:08;;;;;;;1.50;1.50;;;;;;;16.84;30.27;100919.84;4962483;28;98937;-72
2021/05/24 08:57:37;;;;;;;2.30;2.10;;;;;;;16.92;30.05;100904.59;4962610;28;98029;-73
2021/05/24 09:00:07;;;;;;;1.75;1.65;;;;;;;17.02;29.80;100911.72;4962891;28;97765;-72
2021/05/24 09:02:38;;;;;;;1.65;1.55;;;;;;;17.15;29.96;100915.25;4961967;28;98057;-72
2021/05/24 09:05:08;;;;;;;2.05;1.95;;;;;;;17.24;29.78;100905.38;4962675;28;97538;-72
2021/05/24 09:07:47;;;;;;;2.80;1.40;;;;;;;17.37;29.55;100911.56;4962556;28;97787;-72
2021/05/24 09:10:15;;;;;;;1.73;1.67;;;;;;;17.47;29.56;100898.13;4961453;28;96837;-73
2021/05/24 09:12:43;;;;;;;1.67;1.58;;;;;;;17.54;29.28;100904.38;4962975;28;96974;-73
2021/05/24 09:15:14;;;;;;;1.77;1.67;;;;;;;17.62;29.24;100900.72;4961763;28;97362;-73
2021/05/24 09:17:45;;;;;;;2.22;1.60;;;;;;;17.70;29.07;100904.25;4963458;28;98384;-72
2021/05/24 09:20:28;;;;;;;2.08;1.67;;;;;;;17.79;28.97;100890.75;4961931;28;96814;-72
2021/05/24 09:23:12;;;;;;;2.20;2.00;;;;;;;17.88;28.69;100889.78;4961687;28;97875;-72
2021/05/24 09:26:03;;;;;;;2.67;1.60;;;;;;;17.91;28.42;100879.00;4961911;28;97744;-74
2021/05/24 09:28:40;;;;;;;2.23;1.50;;;;;;;17.97;28.16;100884.31;4961773;28;97767;-72
2021/05/24 09:31:12;;;;;;;3.10;1.60;;;;;;;18.01;27.96;100872.63;4962794;28;97061;-72
2021/05/24 09:33:42;;;;;;;4.78;1.70;;;;;;;18.08;28.05;100876.19;4960900;28;96833;-72
2021/05/24 09:36:10;;;;;;;1.70;1.60;;;;;;;18.16;28.14;100875.25;4961531;28;97956;-72
2021/05/24 09:38:43;;;;;;;2.95;1.65;;;;;;;18.22;28.03;100871.59;4960274;28;97716;-73
2021/05/24 09:41:12;;;;;;;1.50;1.40;;;;;;;18.28;27.81;100868.81;4962561;28;98520;-72
2021/05/24 09:43:45;;;;;;;1.85;1.70;;;;;;;18.35;27.65;100867.91;4962395;28;96953;-72
2021/05/24 09:46:19;;;;;;;6.97;5.95;;;;;;;18.43;27.52;100874.09;4960447;28;97655;-72
2021/05/24 09:48:50;;;;;;;1.60;1.47;;;;;;;18.51;27.63;100864.13;4961146;28;99021;-74
2021/05/24 09:51:19;;;;;;;2.90;1.50;;;;;;;18.59;27.65;100864.94;4960911;28;97009;-73
2021/05/24 09:53:58;;;;;;;3.20;2.90;;;;;;;18.62;27.16;100856.84;4962765;28;97314;-72
2021/05/24 09:56:29;;;;;;;3.03;2.83;;;;;;;18.67;27.24;100860.38;4961066;28;97851;-72
2021/05/24 09:59:03;;;;;;;1.63;1.52;;;;;;;18.71;26.97;100860.38;4962463;28;97556;-73
2021/05/24 10:01:35;;;;;;;1.13;1.13;;;;;;;18.76;26.63;100865.69;4960187;28;96919;-72
2021/05/24 10:04:05;;;;;;;2.60;1.25;;;;;;;18.78;26.45;100850.41;4960390;28;97847;-72
2021/05/24 10:06:33;;;;;;;1.40;1.30;;;;;;;18.80;26.09;100848.56;4961351;28;98513;-72
2021/05/24 10:09:02;;;;;;;2.03;1.53;;;;;;;18.83;26.37;100838.63;4961074;28;97745;-72
2021/05/24 10:11:30;;;;;;;1.10;1.10;;;;;;;18.85;26.18;100844.91;4961801;28;97511;-72
2021/05/24 10:13:59;;;;;;;1.20;1.10;;;;;;;18.89;25.70;100833.19;4963324;28;96847;-72
2021/05/24 10:16:31;;;;;;;1.20;1.20;;;;;;;18.94;25.32;100831.31;4963599;28;98136;-73
2021/05/24 10:18:59;;;;;;;1.30;1.20;;;;;;;19.03;25.65;100835.69;4962772;28;97341;-72
2021/05/24 10:21:27;;;;;;;1.53;1.40;;;;;;;19.08;25.86;100824.84;4962102;28;97063;-72
2021/05/24 10:23:55;;;;;;;1.37;1.27;;;;;;;19.11;26.06;100823.00;4962653;28;97287;-73
2021/05/24 10:26:26;;;;;;;1.55;1.45;;;;;;;19.17;25.63;100809.41;4963684;28;99204;-72
2021/05/24 10:28:55;;;;;;;1.95;1.15;;;;;;;19.23;25.20;100805.75;4963901;28;100262;-73
2021/05/24 10:31:24;;;;;;;1.37;1.27;;;;;;;19.26;25.41;100801.22;4965764;28;97570;-72
2021/05/24 10:33:53;;;;;;;2.17;1.48;;;;;;;19.35;25.11;100798.44;4966366;28;97207;-72
2021/05/24 10:36:29;;;;;;;2.25;1.10;;;;;;;19.44;24.65;100798.28;4965425;28;98100;-72
2021/05/24 10:39:10;;;;;;;2.95;1.30;;;;;;;19.51;24.70;100786.47;4965117;28;96761;-72
2021/05/24 10:41:43;;;;;;;1.25;1.20;;;;;;;19.61;24.59;100777.31;4965147;28;97554;-73
2021/05/24 10:44:11;;;;;;;2.30;1.33;;;;;;;19.67;24.18;100784.41;4964008;28;97725;-72
2021/05/24 10:46:40;;;;;;;1.50;1.40;;;;;;;19.75;24.66;100772.59;4964897;28;98191;-73
2021/05/24 10:49:25;;;;;;;2.50;1.20;;;;;;;19.80;24.08;100778.81;4964820;28;99439;-73
2021/05/24 10:51:58;;;;;;;9.23;6.37;;;;;;;19.83;24.14;100773.34;4964799;28;96872;-72
2021/05/24 10:54:34;;;;;;;5.95;5.30;;;;;;;19.92;24.24;100773.22;4963564;28;97109;-73
2021/05/24 10:57:16;;;;;;;1.40;1.00;;;;;;;19.97;24.05;100771.31;4964474;28;98659;-73
2021/05/24 10:59:52;;;;;;;1.57;1.47;;;;;;;20.03;23.63;100766.75;4964674;28;100480;-72
2021/05/24 11:02:36;;;;;;;1.30;1.20;;;;;;;20.06;23.49;100772.97;4964777;28;97749;-71
2021/05/24 11:05:08;;;;;;;1.35;1.20;;;;;;;20.07;23.07;100754.94;4963495;28;97486;-72
2021/05/24 11:07:42;;;;;;;1.00;1.00;;;;;;;20.03;23.34;100751.41;4964851;28;97896;-72
2021/05/24 11:10:23;;;;;;;1.00;1.00;;;;;;;20.06;22.68;100750.47;4964322;28;100385;-73
2021/05/24 11:12:52;;;;;;;1.15;1.00;;;;;;;20.10;23.08;100746.78;4964363;28;97248;-73
2021/05/24 11:15:22;;;;;;;1.10;1.00;;;;;;;20.14;23.07;100737.72;4963791;28;97769;-72
2021/05/24 11:18:13;;;;;;;0.90;0.90;;;;;;;20.13;22.51;100730.50;4963721;28;99195;-71
2021/05/24 11:20:46;;;;;;;1.30;1.30;;;;;;;20.17;22.47;100726.84;4961246;28;97383;-72
2021/05/24 11:23:31;;;;;;;1.40;1.30;;;;;;;20.15;22.60;100715.16;4960157;28;97015;-72
2021/05/24 11:26:32;;;;;;;1.70;1.60;;;;;;;20.15;22.23;100713.38;4964150;28;97156;-72
2021/05/24 11:29:08;;;;;;;1.00;1.00;;;;;;;20.15;22.02;100716.06;4962693;28;97858;-72
2021/05/24 11:31:57;;;;;;;11.73;10.53;;;;;;;20.22;22.24;100715.03;4963227;28;99025;-72
2021/05/24 11:34:31;;;;;;;8.82;6.85;;;;;;;20.21;22.31;100709.66;4960775;28;96803;-72